Angico, Brazil
Current Conditions -  °F | °C
As of 2:00 PM on Wednesday 26 Nov 2014 (Local Time) from SBIZ Reporting Station
Broken Clouds Broken Clouds  
Wind Chill: 93°   Ceiling: 2000
Heat Index: 101°   Visibility: 6mi
Dew Point: 72°   Wind: 7mph
Humidity: 49%   Direction: 70°ENE
Pressure: 29.77"   Gusts: NA
Location:  6.39°S, 47.86°W
Report Text: SBIZ 261700Z 07006KT 9999 BKN020 34/22 Q1008
Loading
Personal Weather Stations






























Interactive Weather Map New forecast layout! Learn more

10-Day Weather Forecast

Advertisements
Track Severe Weather on mobile